createdAt,value
2022-10-11T00:00:01.205Z,97445.59
2022-10-11T00:02:27.835Z,97419.88
2022-10-11T00:04:54.709Z,97442.41
2022-10-11T00:07:21.309Z,97446.16
2022-10-11T00:09:47.864Z,97477.28
2022-10-11T00:12:14.738Z,97469.31
2022-10-11T00:14:41.494Z,97485.72
2022-10-11T00:17:08.127Z,97455.91
2022-10-11T00:19:34.934Z,97471.22
2022-10-11T00:22:01.612Z,97488.97
2022-10-11T00:24:28.242Z,97472.59
2022-10-11T00:26:54.817Z,97494.38
2022-10-11T00:29:21.402Z,97479.34
2022-10-11T00:31:48.057Z,97498.16
2022-10-11T00:34:14.687Z,97481.50
2022-10-11T00:36:41.383Z,97461.09
2022-10-11T00:39:07.980Z,97498.97
2022-10-11T00:41:34.611Z,97451.66
2022-10-11T00:44:13.259Z,97465.63
2022-10-11T00:46:40.762Z,97444.38
2022-10-11T00:49:30.456Z,97459.13
2022-10-11T00:52:12.165Z,97466.34
2022-10-11T00:54:39.668Z,97464.19
2022-10-11T00:57:08.075Z,97483.88
2022-10-11T00:59:39.967Z,97463.66
2022-10-11T01:02:06.605Z,97449.03
2022-10-11T01:04:33.741Z,97457.59
2022-10-11T01:07:00.385Z,97468.31
2022-10-11T01:09:27.033Z,97447.06
2022-10-11T01:11:54.077Z,97418.75
2022-10-11T01:14:34.438Z,97450.78
2022-10-11T01:17:24.155Z,97473.97
2022-10-11T01:20:15.233Z,97431.72
2022-10-11T01:23:03.536Z,97446.81
2022-10-11T01:25:57.289Z,97447.38
2022-10-11T01:28:39.026Z,97373.38
2022-10-11T01:31:43.798Z,97441.22
2022-10-11T01:34:14.038Z,97476.44
2022-10-11T01:36:45.252Z,97457.34
2022-10-11T01:39:48.056Z,97441.69
2022-10-11T01:42:14.777Z,97457.50
2022-10-11T01:44:42.129Z,97439.69
2022-10-11T01:47:08.761Z,97455.56
2022-10-11T01:49:35.428Z,97447.50
2022-10-11T01:52:04.762Z,97427.00
2022-10-11T01:54:49.929Z,97437.00
2022-10-11T01:57:55.146Z,97437.81
2022-10-11T02:00:24.129Z,97432.38
2022-10-11T02:03:05.880Z,97414.91
2022-10-11T02:06:04.236Z,97443.72
2022-10-11T02:08:38.932Z,97453.22
2022-10-11T02:11:30.521Z,97420.88
2022-10-11T02:14:16.738Z,97444.03
2022-10-11T02:16:56.351Z,97433.81
2022-10-11T02:19:26.430Z,97452.66
2022-10-11T02:21:54.913Z,97467.19
2022-10-11T02:24:25.137Z,97454.50
2022-10-11T02:26:52.512Z,97442.31
2022-10-11T02:29:19.093Z,97443.97
2022-10-11T02:31:45.724Z,97414.31
2022-10-11T02:34:19.056Z,97457.44
2022-10-11T02:36:59.335Z,97470.34
2022-10-11T02:39:38.239Z,97451.53
2022-10-11T02:42:05.752Z,97474.16
2022-10-11T02:44:38.302Z,97466.63
2022-10-11T02:47:04.971Z,97454.78
2022-10-11T02:49:31.711Z,97441.28
2022-10-11T02:51:58.666Z,97458.53
2022-10-11T02:54:25.638Z,97456.34
2022-10-11T02:56:52.364Z,97476.00
2022-10-11T02:59:18.963Z,97482.53
2022-10-11T03:01:45.636Z,97456.06
2022-10-11T03:04:12.548Z,97457.44
2022-10-11T03:06:39.180Z,97467.41
2022-10-11T03:09:05.797Z,97477.09
2022-10-11T03:11:32.639Z,97467.66
2022-10-11T03:13:59.279Z,97473.59
2022-10-11T03:16:26.197Z,97467.66
2022-10-11T03:18:52.833Z,97469.31
2022-10-11T03:21:19.449Z,97485.47
2022-10-11T03:23:46.067Z,97478.44
2022-10-11T03:26:12.706Z,97478.50
2022-10-11T03:28:39.400Z,97514.56
2022-10-11T03:31:06.165Z,97476.88
2022-10-11T03:33:32.753Z,97465.81
2022-10-11T03:35:59.390Z,97483.84
2022-10-11T03:38:25.996Z,97490.84
2022-10-11T03:40:52.574Z,97479.56
2022-10-11T03:43:19.215Z,97481.44
2022-10-11T03:45:45.773Z,97466.88
2022-10-11T03:48:12.406Z,97501.66
2022-10-11T03:50:39.298Z,97488.97
2022-10-11T03:53:06.179Z,97501.13
2022-10-11T03:55:32.850Z,97511.63
2022-10-11T03:57:59.499Z,97485.22
2022-10-11T04:00:27.072Z,97493.81
2022-10-11T04:02:53.637Z,97483.56
2022-10-11T04:05:20.300Z,97505.13
2022-10-11T04:07:46.905Z,97515.91
2022-10-11T04:10:13.540Z,97496.00
2022-10-11T04:12:40.149Z,97490.06
2022-10-11T04:15:07.284Z,97502.19
2022-10-11T04:17:33.958Z,97495.69
2022-10-11T04:20:01.773Z,97515.13
2022-10-11T04:22:28.367Z,97518.59
2022-10-11T04:24:54.931Z,97490.03
2022-10-11T04:27:21.605Z,97518.34
2022-10-11T04:29:48.238Z,97516.22
2022-10-11T04:32:14.842Z,97508.13
2022-10-11T04:34:41.649Z,97518.06
2022-10-11T04:37:08.235Z,97550.13
2022-10-11T04:39:34.792Z,97518.63
2022-10-11T04:42:01.612Z,97539.91
2022-10-11T04:44:28.288Z,97533.72
2022-10-11T04:46:54.887Z,97518.38
2022-10-11T04:49:23.440Z,97535.63
2022-10-11T04:51:50.018Z,97529.69
2022-10-11T04:54:16.663Z,97519.72
2022-10-11T04:56:43.348Z,97538.03
2022-10-11T04:59:09.974Z,97516.22
2022-10-11T05:01:36.843Z,97535.06
2022-10-11T05:04:03.679Z,97506.50
2022-10-11T05:06:30.340Z,97544.75
2022-10-11T05:08:57.032Z,97534.53
2022-10-11T05:11:23.676Z,97535.03
2022-10-11T05:13:50.232Z,97536.16
2022-10-11T05:16:17.515Z,97569.00
2022-10-11T05:18:44.688Z,97553.63
2022-10-11T05:21:19.097Z,97549.34
2022-10-11T05:23:49.771Z,97551.22
2022-10-11T05:26:16.929Z,97559.84
2022-10-11T05:28:43.713Z,97549.88
2022-10-11T05:31:10.639Z,97542.06
2022-10-11T05:33:37.260Z,97550.69
2022-10-11T05:36:04.675Z,97565.75
2022-10-11T05:38:31.547Z,97550.69
2022-10-11T05:41:04.387Z,97567.88
2022-10-11T05:43:31.046Z,97577.00
2022-10-11T05:45:57.748Z,97554.41
2022-10-11T05:48:24.470Z,97574.31
2022-10-11T05:50:51.086Z,97557.34
2022-10-11T05:53:17.710Z,97590.19
2022-10-11T05:55:44.336Z,97587.75
2022-10-11T05:58:13.113Z,97613.63
2022-10-11T06:00:39.763Z,97587.97
2022-10-11T06:03:06.831Z,97575.22
2022-10-11T06:05:34.357Z,97593.59
2022-10-11T06:08:01.249Z,97576.56
2022-10-11T06:10:28.144Z,97581.97
2022-10-11T06:12:54.892Z,97577.66
2022-10-11T06:15:21.518Z,97577.91
2022-10-11T06:17:48.191Z,97590.06
2022-10-11T06:20:14.846Z,97589.25
2022-10-11T06:22:41.612Z,97609.69
2022-10-11T06:25:08.459Z,97616.41
2022-10-11T06:27:35.740Z,97606.44
2022-10-11T06:30:02.420Z,97613.41
2022-10-11T06:32:29.507Z,97607.19
2022-10-11T06:34:56.144Z,97604.47
2022-10-11T06:37:22.770Z,97610.66
2022-10-11T06:39:49.932Z,97621.41
2022-10-11T06:42:16.801Z,97602.50
2022-10-11T06:44:43.482Z,97625.63
2022-10-11T06:47:10.072Z,97611.59
2022-10-11T06:49:36.961Z,97626.91
2022-10-11T06:52:03.622Z,97606.63
2022-10-11T06:54:30.220Z,97609.53
2022-10-11T06:56:56.726Z,97652.66
2022-10-11T06:59:23.386Z,97630.13
2022-10-11T07:01:50.096Z,97649.19
2022-10-11T07:04:16.714Z,97656.50
2022-10-11T07:06:43.436Z,97619.16
2022-10-11T07:09:10.089Z,97632.59
2022-10-11T07:11:36.689Z,97628.81
2022-10-11T07:14:04.739Z,97641.72
2022-10-11T07:16:31.646Z,97651.94
2022-10-11T07:19:00.788Z,97663.25
2022-10-11T07:21:28.298Z,97653.78
2022-10-11T07:23:54.900Z,97662.41
2022-10-11T07:26:21.508Z,97672.88
2022-10-11T07:28:48.959Z,97656.34
2022-10-11T07:31:18.053Z,97648.53
2022-10-11T07:33:44.645Z,97670.41
2022-10-11T07:36:11.674Z,97678.72
2022-10-11T07:38:42.570Z,97648.91
2022-10-11T07:41:09.315Z,97677.97
2022-10-11T07:43:36.609Z,97670.31
2022-10-11T07:46:03.726Z,97657.34
2022-10-11T07:48:33.834Z,97673.97
2022-10-11T07:51:20.596Z,97682.59
2022-10-11T07:53:48.651Z,97666.84
2022-10-11T07:56:17.739Z,97675.91
2022-10-11T07:58:44.585Z,97674.75
2022-10-11T08:01:11.266Z,97664.50
2022-10-11T08:03:38.211Z,97673.06
2022-10-11T08:06:06.848Z,97679.00
2022-10-11T08:08:33.795Z,97681.72
2022-10-11T08:11:03.633Z,97691.28
2022-10-11T08:13:30.291Z,97705.94
2022-10-11T08:15:58.495Z,97669.28
2022-10-11T08:18:25.209Z,97656.56
2022-10-11T08:20:52.490Z,97682.16
2022-10-11T08:23:19.177Z,97699.41
2022-10-11T08:25:47.578Z,97689.78
2022-10-11T08:28:14.446Z,97676.31
2022-10-11T08:30:43.249Z,97667.38
2022-10-11T08:33:09.945Z,97676.66
2022-10-11T08:35:36.550Z,97689.09
2022-10-11T08:38:03.193Z,97690.94
2022-10-11T08:40:34.380Z,97684.13
2022-10-11T08:43:06.721Z,97704.97
2022-10-11T08:45:38.434Z,97712.41
2022-10-11T08:48:16.021Z,97724.53
2022-10-11T08:50:43.669Z,97696.59
2022-10-11T08:53:42.754Z,97702.47
2022-10-11T08:56:11.779Z,97682.06
2022-10-11T08:58:45.847Z,97715.88
2022-10-11T09:01:16.901Z,97703.47
2022-10-11T09:03:44.765Z,97697.38
2022-10-11T09:06:23.416Z,97702.22
2022-10-11T09:08:56.511Z,97710.06
2022-10-11T09:11:41.898Z,97692.75
2022-10-11T09:14:16.396Z,97714.50
2022-10-11T09:17:01.340Z,97707.16
2022-10-11T09:19:53.237Z,97695.63
2022-10-11T09:22:37.810Z,97670.91
2022-10-11T09:25:25.444Z,97678.47
2022-10-11T09:28:10.966Z,97701.25
2022-10-11T09:30:46.169Z,97720.22
2022-10-11T09:33:18.770Z,97676.91
2022-10-11T09:35:50.994Z,97702.84
2022-10-11T09:38:26.569Z,97693.94
2022-10-11T09:41:08.355Z,97692.63
2022-10-11T09:43:34.985Z,97677.34
2022-10-11T09:46:01.621Z,97685.28
2022-10-11T09:48:38.338Z,97703.66
2022-10-11T09:51:06.550Z,97695.84
2022-10-11T09:53:53.358Z,97699.88
2022-10-11T09:56:20.030Z,97736.63
2022-10-11T09:58:46.656Z,97695.44
2022-10-11T10:01:22.918Z,97683.31
2022-10-11T10:03:49.770Z,97698.72
2022-10-11T10:06:24.179Z,97707.38
2022-10-11T10:08:50.952Z,97714.16
2022-10-11T10:11:17.985Z,97716.22
2022-10-11T10:13:48.671Z,97695.44
2022-10-11T10:16:41.462Z,97699.25
2022-10-11T10:19:18.304Z,97706.28
2022-10-11T10:21:46.897Z,97709.41
2022-10-11T10:24:35.473Z,97710.50
2022-10-11T10:27:07.996Z,97710.59
2022-10-11T10:29:34.661Z,97697.81
2022-10-11T10:32:14.185Z,97712.44
2022-10-11T10:34:58.902Z,97707.03
2022-10-11T10:37:30.288Z,97709.78
2022-10-11T10:40:14.479Z,97698.94
2022-10-11T10:42:41.130Z,97719.34
2022-10-11T10:45:12.194Z,97713.94
2022-10-11T10:47:42.586Z,97729.00
2022-10-11T10:53:15.746Z,97700.44
2022-10-11T10:55:46.033Z,97699.28
2022-10-11T10:58:34.224Z,97705.84
2022-10-11T11:01:21.369Z,97716.41
2022-10-11T11:04:14.001Z,97702.00
2022-10-11T11:07:04.523Z,97712.00
2022-10-11T11:09:49.528Z,97697.09
2022-10-11T11:12:41.100Z,97705.16
2022-10-11T11:15:14.930Z,97706.00
2022-10-11T11:17:44.437Z,97694.63
2022-10-11T11:20:42.068Z,97701.84
2022-10-11T11:23:22.462Z,97708.28
2022-10-11T11:26:04.459Z,97688.41
2022-10-11T11:28:53.523Z,97689.75
2022-10-11T11:31:43.916Z,97670.19
2022-10-11T11:34:20.164Z,97686.22
2022-10-11T11:36:56.429Z,97675.09
2022-10-11T11:39:47.186Z,97669.75
2022-10-11T11:42:22.550Z,97693.28
2022-10-11T11:44:50.166Z,97683.34
2022-10-11T11:47:37.730Z,97679.03
2022-10-11T11:50:23.238Z,97674.38
2022-10-11T11:52:55.438Z,97697.34
2022-10-11T11:55:48.130Z,97685.97
2022-10-11T11:58:27.146Z,97654.44
2022-10-11T12:01:07.698Z,97684.34
2022-10-11T12:03:41.651Z,97675.69
2022-10-11T12:06:15.131Z,97654.09
2022-10-11T12:09:01.412Z,97673.84
2022-10-11T12:11:38.840Z,97643.63
2022-10-11T12:14:21.655Z,97679.88
2022-10-11T12:17:12.461Z,97674.00
2022-10-11T12:19:41.205Z,97654.28
2022-10-11T12:22:35.725Z,97711.13
2022-10-11T12:25:08.458Z,97682.19
2022-10-11T12:27:44.907Z,97665.84
2022-10-11T12:30:43.115Z,97654.00
2022-10-11T12:33:18.567Z,97662.28
2022-10-11T12:35:51.457Z,97669.78
2022-10-11T12:38:24.967Z,97682.53
2022-10-11T12:41:15.070Z,97660.66
2022-10-11T12:43:48.137Z,97675.63
2022-10-11T12:46:29.793Z,97653.03
2022-10-11T12:48:58.064Z,97671.00
2022-10-11T12:51:27.889Z,97681.03
2022-10-11T12:54:29.105Z,97660.09
2022-10-11T12:57:11.860Z,97655.44
2022-10-11T12:59:44.690Z,97664.03
2022-10-11T13:02:28.687Z,97665.38
2022-10-11T13:05:33.053Z,97667.75
2022-10-11T13:08:02.503Z,97661.75
2022-10-11T13:10:34.626Z,97651.31
2022-10-11T13:13:01.717Z,97667.66
2022-10-11T13:15:28.512Z,97678.41
2022-10-11T13:17:59.465Z,97683.53
2022-10-11T13:20:28.774Z,97657.94
2022-10-11T13:22:55.573Z,97657.88
2022-10-11T13:25:26.829Z,97661.09
2022-10-11T13:27:54.807Z,97655.66
2022-10-11T13:30:25.529Z,97648.94
2022-10-11T13:32:52.550Z,97671.28
2022-10-11T13:35:36.092Z,97680.06
2022-10-11T13:38:03.161Z,97655.75
2022-10-11T13:40:30.904Z,97664.66
2022-10-11T13:42:57.593Z,97655.38
2022-10-11T13:45:25.361Z,97651.06
2022-10-11T13:47:52.650Z,97657.34
2022-10-11T13:50:20.958Z,97649.19
2022-10-11T13:53:10.766Z,97652.69
2022-10-11T13:55:53.235Z,97653.53
2022-10-11T13:58:29.773Z,97681.25
2022-10-11T14:00:57.720Z,97679.44
2022-10-11T14:03:27.907Z,97676.13
2022-10-11T14:05:56.222Z,97651.72
2022-10-11T14:08:44.759Z,97645.22
2022-10-11T14:11:11.956Z,97654.50
2022-10-11T14:13:42.928Z,97655.22
2022-10-11T14:16:18.696Z,97644.31
2022-10-11T14:19:00.934Z,97636.28
2022-10-11T14:21:45.876Z,97647.16
2022-10-11T14:24:13.134Z,97652.41
2022-10-11T14:26:41.388Z,97640.91
2022-10-11T14:29:12.930Z,97636.72
2022-10-11T14:31:42.136Z,97651.88
2022-10-11T14:34:18.045Z,97659.69
2022-10-11T14:36:44.825Z,97650.31
2022-10-11T14:39:19.125Z,97657.47
2022-10-11T14:41:45.931Z,97656.59
2022-10-11T14:44:12.861Z,97671.50
2022-10-11T14:46:39.599Z,97643.25
2022-10-11T14:49:27.109Z,97642.94
2022-10-11T14:51:54.548Z,97646.09
2022-10-11T14:54:21.898Z,97669.44
2022-10-11T14:56:49.368Z,97652.94
2022-10-11T14:59:18.273Z,97641.69
2022-10-11T15:01:44.971Z,97667.66
2022-10-11T15:04:11.711Z,97643.63
2022-10-11T15:06:39.722Z,97631.13
2022-10-11T15:09:06.658Z,97678.16
2022-10-11T15:11:35.573Z,97676.09
2022-10-11T15:14:02.068Z,97665.25
2022-10-11T15:16:29.356Z,97671.78
2022-10-11T15:18:56.161Z,97628.75
2022-10-11T15:21:24.821Z,97638.75
2022-10-11T15:23:51.942Z,97640.94
2022-10-11T15:26:20.637Z,97652.41
2022-10-11T15:28:47.483Z,97645.91
2022-10-11T15:31:14.185Z,97652.22
2022-10-11T15:33:40.889Z,97661.19
2022-10-11T15:36:09.325Z,97659.06
2022-10-11T15:38:36.284Z,97645.09
2022-10-11T15:41:03.225Z,97625.91
2022-10-11T15:43:29.870Z,97662.25
2022-10-11T15:45:56.783Z,97626.50
2022-10-11T15:48:24.873Z,97633.91
2022-10-11T15:50:51.652Z,97640.41
2022-10-11T15:53:22.068Z,97618.03
2022-10-11T15:55:50.177Z,97630.06
2022-10-11T15:58:21.164Z,97644.56
2022-10-11T16:00:49.080Z,97636.09
2022-10-11T16:03:16.125Z,97631.78
2022-10-11T16:05:42.846Z,97643.28
2022-10-11T16:08:09.787Z,97639.91
2022-10-11T16:10:36.498Z,97661.00
2022-10-11T16:13:03.282Z,97639.84
2022-10-11T16:15:29.927Z,97648.22
2022-10-11T16:17:56.528Z,97641.34
2022-10-11T16:20:23.844Z,97668.63
2022-10-11T16:22:50.749Z,97547.31
2022-10-11T16:25:17.326Z,97646.34
2022-10-11T16:27:44.034Z,97629.41
2022-10-11T16:30:12.024Z,97644.16
2022-10-11T16:32:39.093Z,97670.22
2022-10-11T16:35:06.244Z,97641.06
2022-10-11T16:37:32.806Z,97637.84
2022-10-11T16:39:59.451Z,97658.22
2022-10-11T16:42:26.093Z,97645.09
2022-10-11T16:44:52.806Z,97633.94
2022-10-11T16:47:19.443Z,97643.22
2022-10-11T16:49:46.222Z,97639.09
2022-10-11T16:52:12.991Z,97606.22
2022-10-11T16:54:42.269Z,97633.66
2022-10-11T16:57:08.968Z,97663.38
2022-10-11T16:59:35.632Z,97639.91
2022-10-11T17:02:02.174Z,97663.41
2022-10-11T17:04:29.009Z,97657.88
2022-10-11T17:06:55.620Z,97656.59
2022-10-11T17:09:22.227Z,97636.22
2022-10-11T17:11:50.600Z,97652.97
2022-10-11T17:14:17.329Z,97672.94
2022-10-11T17:16:44.293Z,97683.72
2022-10-11T17:19:12.328Z,97658.38
2022-10-11T17:21:39.287Z,97634.66
2022-10-11T17:24:06.344Z,97666.00
2022-10-11T17:26:33.064Z,97678.44
2022-10-11T17:28:59.780Z,97657.22
2022-10-11T17:31:27.061Z,97645.19
2022-10-11T17:33:54.029Z,97654.09
2022-10-11T17:36:21.592Z,97650.03
2022-10-11T17:38:48.670Z,97672.16
2022-10-11T17:41:15.463Z,97668.41
2022-10-11T17:43:42.079Z,97660.88
2022-10-11T17:46:09.703Z,97658.97
2022-10-11T17:48:36.499Z,97676.00
2022-10-11T17:51:10.680Z,97654.47
2022-10-11T17:53:37.551Z,97643.97
2022-10-11T17:56:09.997Z,97665.31
2022-10-11T17:58:36.671Z,97659.94
2022-10-11T18:01:05.222Z,97668.06
2022-10-11T18:03:32.337Z,97665.63
2022-10-11T18:05:58.884Z,97672.38
2022-10-11T18:08:25.531Z,97680.22
2022-10-11T18:10:52.187Z,97659.50
2022-10-11T18:13:19.543Z,97658.69
2022-10-11T18:15:49.125Z,97657.38
2022-10-11T18:18:19.445Z,97647.69
2022-10-11T18:20:49.160Z,97654.66
2022-10-11T18:23:16.892Z,97641.50
2022-10-11T18:25:47.882Z,97632.84
2022-10-11T18:28:14.652Z,97658.19
2022-10-11T18:30:42.781Z,97662.00
2022-10-11T18:33:11.878Z,97657.41
2022-10-11T18:35:38.442Z,97649.59
2022-10-11T18:38:05.248Z,97653.38
2022-10-11T18:40:32.021Z,97647.44
2022-10-11T18:42:59.706Z,97644.78
2022-10-11T18:45:26.478Z,97643.44
2022-10-11T18:47:53.111Z,97659.31
2022-10-11T18:50:19.662Z,97629.44
2022-10-11T18:52:46.338Z,97667.41
2022-10-11T18:55:12.970Z,97670.38
2022-10-11T18:57:39.612Z,97647.47
2022-10-11T19:00:16.864Z,97647.78
2022-10-11T19:02:53.266Z,97652.59
2022-10-11T19:05:19.796Z,97668.22
2022-10-11T19:07:46.430Z,97645.06
2022-10-11T19:10:13.032Z,97663.38
2022-10-11T19:12:39.620Z,97646.41
2022-10-11T19:15:06.443Z,97642.09
2022-10-11T19:17:33.086Z,97634.81
2022-10-11T19:19:59.721Z,97647.22
2022-10-11T19:22:26.319Z,97651.78
2022-10-11T19:24:52.870Z,97652.84
2022-10-11T19:27:19.529Z,97627.00
2022-10-11T19:29:47.379Z,97648.03
2022-10-11T19:32:14.045Z,97646.66
2022-10-11T19:34:40.709Z,97644.78
2022-10-11T19:37:07.395Z,97639.94
2022-10-11T19:39:34.058Z,97657.41
2022-10-11T19:42:01.379Z,97660.63
2022-10-11T19:44:27.984Z,97658.47
2022-10-11T19:46:54.697Z,97658.72
2022-10-11T19:49:22.089Z,97653.59
2022-10-11T19:51:48.617Z,97641.50
2022-10-11T19:54:15.353Z,97671.59
2022-10-11T19:56:42.074Z,97653.56
2022-10-11T19:59:08.708Z,97639.56
2022-10-11T20:01:35.681Z,97663.78
2022-10-11T20:04:06.532Z,97660.81
2022-10-11T20:06:38.098Z,97638.78
2022-10-11T20:09:28.128Z,97680.41
2022-10-11T20:11:53.042Z,97681.75
2022-10-11T20:14:19.737Z,97660.00
2022-10-11T20:16:46.324Z,97657.84
2022-10-11T20:19:12.968Z,97657.56
2022-10-11T20:21:39.556Z,97666.97
2022-10-11T20:24:06.286Z,97700.31
2022-10-11T20:26:34.466Z,97670.47
2022-10-11T20:29:01.144Z,97665.91
2022-10-11T20:31:28.469Z,97667.78
2022-10-11T20:33:56.069Z,97661.09
2022-10-11T20:36:23.314Z,97668.34
2022-10-11T20:38:50.225Z,97706.53
2022-10-11T20:41:20.808Z,97689.63
2022-10-11T20:43:48.962Z,97692.84
2022-10-11T20:46:23.123Z,97693.38
2022-10-11T20:48:58.899Z,97652.53
2022-10-11T20:51:29.278Z,97676.47
2022-10-11T20:53:55.896Z,97715.47
2022-10-11T20:56:22.604Z,97668.69
2022-10-11T20:58:52.828Z,97687.00
2022-10-11T21:01:23.494Z,97688.06
2022-10-11T21:03:50.181Z,97704.47
2022-10-11T21:06:16.763Z,97703.13
2022-10-11T21:08:43.380Z,97685.38
2022-10-11T21:11:10.182Z,97698.31
2022-10-11T21:13:36.868Z,97680.56
2022-10-11T21:16:13.485Z,97704.22
2022-10-11T21:18:40.166Z,97675.19
2022-10-11T21:21:07.278Z,97681.38
2022-10-11T21:23:34.064Z,97657.97
2022-10-11T21:26:02.381Z,97650.16
2022-10-11T21:28:29.042Z,97671.69
2022-10-11T21:30:55.641Z,97708.59
2022-10-11T21:33:22.240Z,97654.75
2022-10-11T21:35:48.962Z,97655.28
2022-10-11T21:38:15.538Z,97690.25
2022-10-11T21:40:42.144Z,97675.72
2022-10-11T21:43:08.688Z,97691.88
2022-10-11T21:45:39.170Z,97667.66
2022-10-11T21:48:06.204Z,97692.41
2022-10-11T21:50:32.823Z,97648.28
2022-10-11T21:52:59.492Z,97676.81
2022-10-11T21:55:26.693Z,97689.47
2022-10-11T21:57:53.355Z,97672.25
2022-10-11T22:00:20.201Z,97657.16
2022-10-11T22:02:46.831Z,97667.41
2022-10-11T22:05:13.429Z,97669.00
2022-10-11T22:07:40.044Z,97684.91
2022-10-11T22:10:06.675Z,97670.34
2022-10-11T22:12:33.501Z,97663.63
2022-10-11T22:15:00.426Z,97664.97
2022-10-11T22:17:27.004Z,97669.81
2022-10-11T22:19:53.666Z,97670.66
2022-10-11T22:22:20.214Z,97666.03
2022-10-11T22:24:47.079Z,97660.66
2022-10-11T22:27:13.746Z,97661.72
2022-10-11T22:29:40.442Z,97694.88
2022-10-11T22:32:07.079Z,97653.13
2022-10-11T22:34:33.756Z,97652.84
2022-10-11T22:37:00.438Z,97641.84
2022-10-11T22:39:26.972Z,97647.75
2022-10-11T22:41:54.068Z,97671.44
2022-10-11T22:44:20.914Z,97653.94
2022-10-11T22:46:47.456Z,97654.47
2022-10-11T22:49:14.046Z,97673.56
2022-10-11T22:51:40.571Z,97650.16
2022-10-11T22:54:07.134Z,97663.91
2022-10-11T22:56:34.027Z,97658.50
2022-10-11T22:59:00.635Z,97667.13
2022-10-11T23:01:27.341Z,97647.16
2022-10-11T23:03:54.035Z,97630.22
2022-10-11T23:06:20.678Z,97644.50
2022-10-11T23:08:47.336Z,97638.56
2022-10-11T23:11:13.921Z,97672.25
2022-10-11T23:13:40.534Z,97648.53
2022-10-11T23:16:08.454Z,97658.75
2022-10-11T23:18:35.101Z,97644.22
2022-10-11T23:21:01.792Z,97646.91
2022-10-11T23:23:28.557Z,97653.13
2022-10-11T23:26:02.174Z,97651.75
2022-10-11T23:28:29.093Z,97646.38
2022-10-11T23:30:55.696Z,97625.34
2022-10-11T23:33:22.316Z,97642.06
2022-10-11T23:35:48.943Z,97648.28
2022-10-11T23:38:15.632Z,97635.88
2022-10-11T23:40:42.443Z,97672.22
2022-10-11T23:43:09.122Z,97703.47
2022-10-11T23:45:35.815Z,97669.25
2022-10-11T23:48:02.473Z,97659.56
2022-10-11T23:50:29.087Z,97662.50
2022-10-11T23:52:55.755Z,97633.41
2022-10-11T23:55:23.936Z,97675.97
2022-10-11T23:57:50.565Z,97657.09
